createdAt,value
2016-04-04T17:04:41.359Z,945.92
2016-04-04T17:05:41.378Z,945.95
2016-04-04T17:06:41.224Z,945.96
2016-04-04T17:07:41.195Z,945.99
2016-04-04T17:08:41.182Z,946
2016-04-04T17:09:43.498Z,946.02
2016-04-04T17:10:41.204Z,946
2016-04-04T17:11:41.160Z,946.04
2016-04-04T17:12:41.443Z,946.04
2016-04-04T17:13:43.696Z,946.03
2016-04-04T17:14:41.168Z,946.05
2016-04-04T17:15:43.779Z,946
2016-04-04T17:16:41.130Z,946.01
2016-04-04T17:17:43.694Z,946.01
2016-04-04T17:18:41.182Z,945.97
2016-04-04T17:19:41.185Z,946
2016-04-04T17:20:41.499Z,945.97
2016-04-04T17:21:41.394Z,945.96
2016-04-04T17:22:41.130Z,945.96
2016-04-04T17:23:43.180Z,945.97
2016-04-04T17:24:41.168Z,946
2016-04-04T17:25:41.670Z,946.04
2016-04-04T17:26:43.407Z,946.08
2016-04-04T17:27:43.690Z,946.13
2016-04-04T17:28:43.646Z,946.13
2016-04-04T17:29:43.634Z,946.15
2016-04-04T17:30:41.152Z,946.11
2016-04-04T17:31:41.967Z,946.11
2016-04-04T17:32:43.642Z,946.11
2016-04-04T17:33:43.675Z,946.08
2016-04-04T17:34:43.647Z,946.09
2016-04-04T17:35:43.650Z,946.13
2016-04-04T17:36:43.762Z,946.09
2016-04-04T17:37:43.406Z,946.14
2016-04-04T17:38:43.596Z,946.16
2016-04-04T17:39:43.630Z,946.13
2016-04-04T17:40:43.004Z,946.15
2016-04-04T17:41:43.566Z,946.15
2016-04-04T17:42:43.299Z,946.17
2016-04-04T17:43:43.297Z,946.18
2016-04-04T17:44:43.291Z,946.21
2016-04-04T17:45:42.833Z,946.21
2016-04-04T17:46:42.892Z,946.2
2016-04-04T17:47:43.482Z,946.18
2016-04-04T17:48:43.399Z,946.19
2016-04-04T17:49:43.227Z,946.15
2016-04-04T17:50:43.446Z,946.15
2016-04-04T17:51:43.665Z,946.17
2016-04-04T17:52:43.432Z,946.16
2016-04-04T17:53:43.197Z,946.18
2016-04-04T17:54:43.183Z,946.16
2016-04-04T17:55:43.528Z,946.19
2016-04-04T17:56:43.155Z,946.2
2016-04-04T17:57:42.876Z,946.23
2016-04-04T17:58:42.847Z,946.24
2016-04-04T17:59:43.255Z,946.27
2016-04-04T18:00:42.804Z,946.26
2016-04-04T18:02:43.279Z,946.27
2016-04-04T18:03:42.937Z,946.31
2016-04-04T18:04:43.159Z,946.31
2016-04-04T18:05:43.255Z,946.27
2016-04-04T18:06:42.742Z,946.33
2016-04-04T18:07:43.119Z,946.32
2016-04-04T18:08:42.731Z,946.3
2016-04-04T18:09:43.109Z,946.33
2016-04-04T18:10:42.737Z,946.33
2016-04-04T18:11:40.802Z,946.31
2016-04-04T18:12:42.773Z,946.35
2016-04-04T18:13:42.729Z,946.34
2016-04-04T18:14:42.717Z,946.36
2016-04-04T18:15:42.735Z,946.34
2016-04-04T18:16:43.081Z,946.37
2016-04-04T18:17:43.052Z,946.41
2016-04-04T18:18:42.743Z,946.43
2016-04-04T18:19:42.760Z,946.44
2016-04-04T18:20:42.685Z,946.43
2016-04-04T18:21:42.907Z,946.45
2016-04-04T18:22:42.707Z,946.46
2016-04-04T18:23:42.743Z,946.45
2016-04-04T18:24:40.777Z,946.42
2016-04-04T18:25:40.717Z,946.47
2016-04-04T18:26:43.360Z,946.47
2016-04-04T18:27:43.004Z,946.46
2016-04-04T18:28:43.023Z,946.43
2016-04-04T18:29:43.009Z,946.47
2016-04-04T18:30:42.731Z,946.43
2016-04-04T18:31:42.937Z,946.42
2016-04-04T18:32:43.017Z,946.4
2016-04-04T18:33:42.708Z,946.37
2016-04-04T18:34:42.679Z,946.43
2016-04-04T18:35:40.713Z,946.39
2016-04-04T18:36:40.700Z,946.37
2016-04-04T18:37:42.953Z,946.37
2016-04-04T18:38:42.675Z,946.38
2016-04-04T18:39:42.895Z,946.35
2016-04-04T18:40:42.648Z,946.39
2016-04-04T18:41:43.744Z,946.35
2016-04-04T18:42:43.764Z,946.35
2016-04-04T18:43:43.906Z,946.37
2016-04-04T18:44:42.878Z,946.35
2016-04-04T18:45:42.599Z,946.39
2016-04-04T18:46:43.602Z,946.4
2016-04-04T18:47:42.604Z,946.4
2016-04-04T18:48:42.624Z,946.42
2016-04-04T18:49:42.610Z,946.39
2016-04-04T18:50:42.550Z,946.43
2016-04-04T18:51:42.849Z,946.42
2016-04-04T18:52:42.618Z,946.39
2016-04-04T18:53:40.590Z,946.44
2016-04-04T18:54:43.217Z,946.45
2016-04-04T18:55:42.252Z,946.44
2016-04-04T18:56:42.520Z,946.43
2016-04-04T18:57:40.537Z,946.44
2016-04-04T18:58:40.588Z,946.48
2016-04-04T18:59:42.965Z,946.51
2016-04-04T19:00:42.484Z,946.49
2016-04-04T19:01:41.767Z,946.5
2016-04-04T19:02:42.520Z,946.54
2016-04-04T19:03:40.523Z,946.52
2016-04-04T19:04:42.650Z,946.53
2016-04-04T19:05:40.700Z,946.51
2016-04-04T19:06:44.968Z,946.52
2016-04-04T19:07:40.517Z,946.53
2016-04-04T19:08:42.817Z,946.53
2016-04-04T19:09:40.461Z,946.5
2016-04-04T19:10:40.933Z,946.54
2016-04-04T19:11:40.529Z,946.52
2016-04-04T19:12:40.688Z,946.54
2016-04-04T19:13:40.487Z,946.51
2016-04-04T19:14:42.693Z,946.5
2016-04-04T19:15:40.664Z,946.51
2016-04-04T19:16:40.464Z,946.52
2016-04-04T19:17:40.420Z,946.53
2016-04-04T19:18:42.375Z,946.5
2016-04-04T19:19:40.410Z,946.51
2016-04-04T19:20:40.444Z,946.49
2016-04-04T19:21:40.447Z,946.5
2016-04-04T19:22:40.636Z,946.47
2016-04-04T19:23:40.389Z,946.48
2016-04-04T19:24:40.830Z,946.46
2016-04-04T19:25:41.426Z,946.47
2016-04-04T19:26:42.459Z,946.46
2016-04-04T19:27:41.962Z,946.44
2016-04-04T19:28:42.434Z,946.44
2016-04-04T19:29:42.654Z,946.4
2016-04-04T19:30:42.642Z,946.42
2016-04-04T19:31:42.973Z,946.41
2016-04-04T19:32:42.616Z,946.37
2016-04-04T19:33:42.915Z,946.38
2016-04-04T19:34:42.294Z,946.38
2016-04-04T19:35:42.281Z,946.36
2016-04-04T19:36:42.253Z,946.33
2016-04-04T19:38:42.554Z,946.28
2016-04-04T19:39:43.229Z,946.27
2016-04-04T19:40:40.278Z,946.23
2016-04-04T19:41:40.750Z,946.22
2016-04-04T19:42:42.956Z,946.23
2016-04-04T19:43:42.615Z,946.25
2016-04-04T19:44:42.680Z,946.25
2016-04-04T19:45:42.463Z,946.19
2016-04-04T19:46:42.686Z,946.17
2016-04-04T19:47:42.766Z,946.19
2016-04-04T19:48:42.503Z,946.16
2016-04-04T19:49:42.694Z,946.15
2016-04-04T19:50:42.680Z,946.12
2016-04-04T19:51:42.480Z,946.14
2016-04-04T19:52:42.702Z,946.12
2016-04-04T19:53:42.219Z,946.13
2016-04-04T19:54:40.363Z,946.13
2016-04-04T19:55:42.460Z,946.1
2016-04-04T19:56:42.165Z,946.1
2016-04-04T19:57:42.465Z,946.15
2016-04-04T19:58:42.421Z,946.17
2016-04-04T19:59:42.455Z,946.18
2016-04-04T20:00:42.474Z,946.16
2016-04-04T20:01:42.398Z,946.23
2016-04-04T20:02:42.166Z,946.18
2016-04-04T20:03:42.154Z,946.19
2016-04-04T20:04:42.672Z,946.18
2016-04-04T20:05:42.456Z,946.17
2016-04-04T20:06:42.537Z,946.22
2016-04-04T20:07:42.477Z,946.21
2016-04-04T20:08:42.287Z,946.19
2016-04-04T20:09:42.294Z,946.19
2016-04-04T20:10:42.719Z,946.22
2016-04-04T20:11:42.503Z,946.21
2016-04-04T20:12:42.506Z,946.24
2016-04-04T20:13:42.540Z,946.22
2016-04-04T20:14:42.292Z,946.22
2016-04-04T20:15:42.420Z,946.22
2016-04-04T20:16:42.392Z,946.22
2016-04-04T20:17:42.456Z,946.19
2016-04-04T20:18:42.100Z,946.2
2016-04-04T20:19:42.211Z,946.22
2016-04-04T20:20:41.949Z,946.23
2016-04-04T20:21:42.358Z,946.18
2016-04-04T20:22:42.002Z,946.23
2016-04-04T20:23:42.004Z,946.18
2016-04-04T20:24:42.335Z,946.21
2016-04-04T20:25:42.291Z,946.18
2016-04-04T20:26:41.950Z,946.16
2016-04-04T20:27:42.265Z,946.14
2016-04-04T20:28:42.236Z,946.11
2016-04-04T20:29:42.224Z,946.12
2016-04-04T20:30:41.976Z,946.15
2016-04-04T20:31:42.104Z,946.12
2016-04-04T20:32:41.949Z,946.09
2016-04-04T20:33:42.077Z,946.09
2016-04-04T20:34:42.174Z,946.11
2016-04-04T20:35:42.583Z,946.04
2016-04-04T20:36:42.039Z,946.05
2016-04-04T20:37:57.042Z,946.05
2016-04-04T20:39:15.106Z,946
2016-04-04T20:40:30.422Z,945.98
2016-04-04T20:41:41.318Z,945.89
2016-04-04T20:42:56.774Z,945.91
2016-04-04T20:44:11.979Z,945.85
2016-04-04T20:45:28.123Z,945.87
2016-04-04T20:46:38.175Z,945.92
2016-04-04T20:49:07.477Z,945.95
2016-04-04T20:49:50.261Z,946
2016-04-04T20:50:49.827Z,946.04
2016-04-04T20:51:50.033Z,946.03
2016-04-04T20:52:50.941Z,946.04
2016-04-04T20:53:49.975Z,946.05
2016-04-04T20:54:51.166Z,946.09
2016-04-04T20:55:49.997Z,946.11
2016-04-04T20:56:49.983Z,946.09
2016-04-04T20:57:49.971Z,946.1
2016-04-04T20:58:50.880Z,946.08
2016-04-04T20:59:50.570Z,946.07
2016-04-04T21:00:49.729Z,946.13
2016-04-04T21:01:49.919Z,946.13
2016-04-04T21:02:49.890Z,946.1
2016-04-04T21:03:49.956Z,946.14
2016-04-04T21:04:50.630Z,946.18
2016-04-04T21:05:50.633Z,946.18
2016-04-04T21:06:49.714Z,946.18
2016-04-04T21:07:50.826Z,946.22
2016-04-04T21:08:50.766Z,946.2
2016-04-04T21:09:50.367Z,946.22
2016-04-04T21:10:50.620Z,946.23
2016-04-04T21:11:50.637Z,946.25
2016-04-04T21:12:50.562Z,946.27
2016-04-04T21:13:50.800Z,946.24
2016-04-04T21:14:50.553Z,946.24
2016-04-04T21:15:50.243Z,946.25
2016-04-04T21:16:50.777Z,946.23
2016-04-04T21:17:51.076Z,946.22
2016-04-04T21:18:49.611Z,946.2
2016-04-04T21:19:50.238Z,946.23
2016-04-04T21:20:49.772Z,946.19
2016-04-04T21:21:50.352Z,946.21
2016-04-04T21:22:50.496Z,946.19
2016-04-04T21:23:50.499Z,946.15
2016-04-04T21:24:49.860Z,946.14
2016-04-04T21:25:49.770Z,946.11
2016-04-04T21:26:50.491Z,946.1
2016-04-04T21:28:49.575Z,946.05
2016-04-04T21:29:49.468Z,946.02
2016-04-04T21:30:49.518Z,946
2016-04-04T21:31:49.520Z,945.99
2016-04-04T21:32:49.710Z,945.98
2016-04-04T21:33:50.463Z,946.01
2016-04-04T21:34:50.137Z,945.98
2016-04-04T21:35:49.469Z,946.06
2016-04-04T21:36:49.471Z,946.1
2016-04-04T21:37:49.677Z,946.08
2016-04-04T21:38:49.757Z,946.11
2016-04-04T21:39:49.448Z,946.07
2016-04-04T21:40:49.435Z,946.12
2016-04-04T21:41:49.593Z,946.08
2016-04-04T21:42:49.456Z,946.13
2016-04-04T21:43:49.458Z,946.07
2016-04-04T21:44:49.633Z,946.06
2016-04-04T21:45:49.448Z,946.04
2016-04-04T21:46:49.389Z,946.03
2016-04-04T21:47:49.610Z,946.05
2016-04-04T21:48:49.410Z,946.06
2016-04-04T21:49:49.381Z,946.06
2016-04-04T21:50:49.462Z,946.01
2016-04-04T21:51:49.355Z,946.06
2016-04-04T21:52:49.592Z,946.04
2016-04-04T21:53:49.610Z,946.06
2016-04-04T21:54:56.113Z,946.05
2016-04-04T21:55:49.335Z,946.07
2016-04-04T21:56:49.555Z,946.05
2016-04-04T21:57:49.527Z,946.07
2016-04-04T21:58:49.343Z,946.07
2016-04-04T21:59:49.299Z,946.1
2016-04-04T22:00:49.552Z,946.1
2016-04-04T22:01:49.522Z,946.13
2016-04-04T22:02:50.010Z,946.11
2016-04-04T22:03:49.496Z,946.1
2016-04-04T22:04:49.280Z,946.11
2016-04-04T22:05:49.393Z,946.14
2016-04-04T22:06:49.474Z,946.14
2016-04-04T22:07:49.258Z,946.13
2016-04-04T22:08:49.213Z,946.14
2016-04-04T22:09:49.482Z,946.15
2016-04-04T22:10:50.750Z,946.15
2016-04-04T22:11:49.487Z,946.17
2016-04-04T22:12:49.209Z,946.15
2016-04-04T22:13:49.304Z,946.12
2016-04-04T22:14:49.182Z,946.11
2016-04-04T22:15:49.169Z,946.11
2016-04-04T22:16:49.437Z,946.11
2016-04-04T22:17:50.894Z,946.12
2016-04-04T22:18:49.350Z,946.08
2016-04-04T22:19:50.415Z,946.08
2016-04-04T22:20:49.543Z,946.06
2016-04-04T22:21:49.326Z,946.06
2016-04-04T22:22:49.658Z,946.05
2016-04-04T22:23:49.316Z,946.06
2016-04-04T22:24:49.459Z,946.06
2016-04-04T22:25:49.525Z,946.04
2016-04-04T22:26:49.933Z,946.02
2016-04-04T22:27:49.108Z,946.06
2016-04-04T22:28:49.360Z,946.02
2016-04-04T22:29:49.066Z,946.03
2016-04-04T22:30:49.194Z,946.09
2016-04-04T22:31:49.196Z,946.08
2016-04-04T22:32:49.278Z,946.04
2016-04-04T22:33:49.030Z,946
2016-04-04T22:34:49.018Z,946.01
2016-04-04T22:35:49.224Z,946
2016-04-04T22:36:49.007Z,945.95
2016-04-04T22:37:49.151Z,945.97
2016-04-04T22:38:49.621Z,945.94
2016-04-04T22:39:49.437Z,945.91
2016-04-04T22:40:49.721Z,945.87
2016-04-04T22:41:49.427Z,945.83
2016-04-04T22:42:49.852Z,945.81
2016-04-04T22:43:49.590Z,945.81
2016-04-04T22:44:48.967Z,945.8
2016-04-04T22:45:48.970Z,945.78
2016-04-04T22:46:49.128Z,945.77
2016-04-04T22:47:49.662Z,945.74
2016-04-04T22:48:49.134Z,945.76
2016-04-04T22:49:49.292Z,945.74
2016-04-04T22:50:49.123Z,945.74
2016-04-04T22:51:48.906Z,945.73
2016-04-04T22:52:48.894Z,945.77
2016-04-04T22:53:48.866Z,945.76
2016-04-04T22:54:48.900Z,945.8
2016-04-04T22:55:48.997Z,945.79
2016-04-04T22:56:49.124Z,945.83
2016-04-04T22:57:48.783Z,945.84
2016-04-04T22:58:49.083Z,945.86
2016-04-04T22:59:48.866Z,945.88
2016-04-04T23:00:49.025Z,945.87
2016-04-04T23:01:49.012Z,945.87
2016-04-04T23:02:48.796Z,945.82
2016-04-04T23:04:50.066Z,945.77
2016-04-04T23:05:49.382Z,945.78
2016-04-04T23:06:49.040Z,945.71
2016-04-04T23:07:49.638Z,945.7
2016-04-04T23:08:49.015Z,945.7
2016-04-04T23:09:49.002Z,945.74
2016-04-04T23:10:51.802Z,945.73
2016-04-04T23:11:48.883Z,945.71
2016-04-04T23:12:50.120Z,945.7
2016-04-04T23:13:48.920Z,945.67
2016-04-04T23:14:48.937Z,945.67
2016-04-04T23:15:48.940Z,945.64
2016-04-04T23:16:48.693Z,945.63
2016-04-04T23:17:48.868Z,945.61
2016-04-04T23:18:48.792Z,945.53
2016-04-04T23:19:48.826Z,945.53
2016-04-04T23:20:48.595Z,945.47
2016-04-04T23:21:48.612Z,945.45
2016-04-04T23:22:51.084Z,945.42
2016-04-04T23:23:49.572Z,945.42
2016-04-04T23:24:48.824Z,945.41
2016-04-04T23:25:49.327Z,945.42
2016-04-04T23:26:49.938Z,945.44
2016-04-04T23:27:49.597Z,945.38
2016-04-04T23:28:49.319Z,945.4
2016-04-04T23:29:48.758Z,945.36
2016-04-04T23:30:48.575Z,945.34
2016-04-04T23:31:48.593Z,945.33
2016-04-04T23:32:49.971Z,945.27
2016-04-04T23:33:48.552Z,945.31
2016-04-04T23:34:48.741Z,945.29
2016-04-04T23:35:48.729Z,945.34
2016-04-04T23:36:48.496Z,945.32
2016-04-04T23:37:48.640Z,945.34
2016-04-04T23:38:50.487Z,945.35
2016-04-04T23:40:10.832Z,945.38
2016-04-04T23:41:09.632Z,945.36
2016-04-04T23:42:09.963Z,945.36
2016-04-04T23:43:09.840Z,945.39
2016-04-04T23:44:09.782Z,945.37
2016-04-04T23:45:09.581Z,945.42
2016-04-04T23:46:09.599Z,945.39
2016-04-04T23:47:09.805Z,945.4
2016-04-04T23:48:09.526Z,945.37
2016-04-04T23:49:18.560Z,945.4
2016-04-04T23:50:09.687Z,945.43
2016-04-04T23:51:09.581Z,945.42
2016-04-04T23:52:09.975Z,945.44
2016-04-04T23:53:09.712Z,945.45
2016-04-04T23:54:10.465Z,945.42
2016-04-04T23:55:10.905Z,945.45
2016-04-04T23:56:09.486Z,945.42
2016-04-04T23:57:10.269Z,945.47
2016-04-04T23:58:10.241Z,945.42
2016-04-04T23:59:09.978Z,945.41
